Time;durP1;ratioP1;P1;durP2;ratioP2;P2;SDS_P1;SDS_P2;PMS_P1;PMS_P2;Temp;Humidity;BMP_temperature;BMP_pressure;BME280_temperature;BME280_humidity;BME280_pressure;Samples;Min_cycle;Max_cycle;Signal;HPM_P1;HPM_P2
2022/01/11 00:01:28;;;;;;;36.00;11.15;;;;;;;4.94;100.00;99935.16;5027777;28;20033;-74
2022/01/11 00:03:55;;;;;;;36.67;9.40;;;;;;;5.05;100.00;99940.78;5011686;28;20033;-75
2022/01/11 00:06:28;;;;;;;32.78;9.88;;;;;;;5.03;100.00;99948.38;5028058;28;20048;-74
2022/01/11 00:08:59;;;;;;;21.27;8.05;;;;;;;5.09;100.00;99970.88;5027826;28;20068;-74
2022/01/11 00:11:25;;;;;;;25.90;10.13;;;;;;;4.98;100.00;99949.84;5028134;28;20514;-73
2022/01/11 00:13:50;;;;;;;13.70;5.03;;;;;;;5.01;100.00;99961.13;5027453;28;20065;-73
2022/01/11 00:16:16;;;;;;;10.98;4.68;;;;;;;4.68;100.00;99924.44;5033117;28;20052;-73
2022/01/11 00:18:42;;;;;;;12.98;5.63;;;;;;;4.84;100.00;99965.34;5047847;28;20040;-75
2022/01/11 00:21:08;;;;;;;15.02;6.00;;;;;;;4.60;100.00;99944.50;5047736;28;20039;-74
2022/01/11 00:25:59;;;;;;;22.00;6.75;;;;;;;4.81;100.00;99979.66;5047586;28;20484;-74
2022/01/11 00:28:26;;;;;;;33.47;9.35;;;;;;;4.68;100.00;99966.22;5032466;28;20046;-73
2022/01/11 00:30:52;;;;;;;26.25;9.70;;;;;;;4.72;100.00;99971.53;5030186;28;20029;-74
2022/01/11 00:33:26;;;;;;;21.67;8.55;;;;;;;4.80;100.00;99990.72;5030446;28;20037;-73
2022/01/11 00:36:03;;;;;;;23.00;8.93;;;;;;;4.73;100.00;99973.28;5030512;28;20033;-72
2022/01/11 00:38:35;;;;;;;21.52;7.55;;;;;;;4.47;100.00;99957.44;5029236;28;20029;-73
2022/01/11 00:41:05;;;;;;;18.08;6.97;;;;;;;4.79;100.00;99992.38;5029894;28;20112;-76
2022/01/11 00:43:31;;;;;;;;;;;;;;;4.71;100.00;99988.56;5030509;28;20044;-77
2022/01/11 00:45:57;;;;;;;33.85;9.93;;;;;;;4.70;100.00;99997.88;5049055;28;19912;-72
2022/01/11 00:48:23;;;;;;;29.83;11.63;;;;;;;4.63;100.00;99997.47;5064864;28;20084;-73
2022/01/11 00:50:50;;;;;;;41.35;12.65;;;;;;;4.65;100.00;99996.75;5050348;28;20076;-73
2022/01/11 00:53:16;;;;;;;44.13;13.32;;;;;;;4.44;100.00;99980.28;5050138;28;20502;-73
2022/01/11 00:55:42;;;;;;;29.65;9.88;;;;;;;4.69;100.00;100015.72;5050364;28;20076;-74
2022/01/11 00:58:08;;;;;;;19.52;8.65;;;;;;;4.67;100.00;100014.75;5056911;28;20025;-73
2022/01/11 01:00:35;;;;;;;25.88;11.32;;;;;;;4.59;100.00;100010.91;5057236;28;20032;-73
2022/01/11 01:03:01;;;;;;;26.63;9.80;;;;;;;4.64;100.00;100024.81;5056946;28;20552;-74
2022/01/11 01:05:28;;;;;;;31.13;12.15;;;;;;;4.65;100.00;100017.22;5057315;28;20021;-75
2022/01/11 01:07:53;;;;;;;39.60;13.13;;;;;;;4.74;100.00;100026.19;5056803;28;20036;-76
2022/01/11 01:12:45;;;;;;;20.27;9.52;;;;;;;4.34;100.00;99982.34;5057006;28;20033;-79
2022/01/11 01:15:11;;;;;;;32.70;10.02;;;;;;;4.61;100.00;100022.09;5054843;28;20043;-79
2022/01/11 01:17:36;;;;;;;36.63;12.70;;;;;;;4.51;100.00;100008.81;5090321;28;20080;-83
2022/01/11 01:20:03;;;;;;;27.33;9.27;;;;;;;4.54;100.00;100023.44;5096983;28;20679;-80
2022/01/11 01:22:29;;;;;;;12.57;6.50;;;;;;;4.58;100.00;100029.59;5095756;28;20028;-80
2022/01/11 01:24:54;;;;;;;27.33;9.15;;;;;;;4.44;100.00;100004.16;5095736;28;20043;-81
2022/01/11 01:27:20;;;;;;;34.03;10.55;;;;;;;4.41;100.00;99998.00;5096891;28;20036;-82
2022/01/11 01:29:45;;;;;;;25.85;8.85;;;;;;;4.34;100.00;100000.22;5078998;28;20039;-80
2022/01/11 01:32:11;;;;;;;27.30;9.75;;;;;;;4.42;100.00;100010.00;5079069;28;20031;-81
2022/01/11 01:34:37;;;;;;;24.92;10.40;;;;;;;4.22;100.00;99979.13;5095629;28;20032;-79
2022/01/11 01:37:03;;;;;;;33.70;10.30;;;;;;;4.35;100.00;99990.91;5096653;28;20032;-75
2022/01/11 01:39:29;;;;;;;40.33;13.60;;;;;;;4.17;100.00;99976.31;5096917;28;20440;-75
2022/01/11 01:41:55;;;;;;;33.83;11.18;;;;;;;4.24;100.00;99994.53;5097280;28;20024;-79
2022/01/11 01:44:21;;;;;;;28.48;10.15;;;;;;;4.35;100.00;100014.78;5097008;28;20043;-83
2022/01/11 01:46:46;;;;;;;42.60;12.60;;;;;;;4.24;100.00;99997.97;5078821;28;20097;-78
2022/01/11 01:49:17;;;;;;;28.25;10.15;;;;;;;4.30;100.00;100000.88;5096267;28;20032;-77
2022/01/11 01:51:44;;;;;;;26.60;9.88;;;;;;;4.31;100.00;100007.75;5096471;28;20114;-71
2022/01/11 01:54:11;;;;;;;30.38;9.90;;;;;;;4.32;100.00;100018.84;5096913;28;20057;-69
2022/01/11 01:56:37;;;;;;;28.35;10.00;;;;;;;4.05;100.00;99978.22;5088161;28;20047;-70
2022/01/11 01:59:03;;;;;;;23.35;9.38;;;;;;;4.17;100.00;100006.97;5070325;28;20028;-71
2022/01/11 02:01:32;;;;;;;20.30;8.25;;;;;;;4.19;100.00;100014.72;5081030;28;20040;-72
2022/01/11 02:03:58;;;;;;;17.65;9.25;;;;;;;4.18;100.00;100011.28;5094544;28;20512;-71
2022/01/11 02:06:24;;;;;;;12.18;6.00;;;;;;;4.23;100.00;100016.66;5096067;28;20066;-72
2022/01/11 02:08:50;;;;;;;10.75;6.10;;;;;;;4.13;100.00;99999.06;5093715;28;20032;-72
2022/01/11 02:11:17;;;;;;;9.80;5.75;;;;;;;4.19;100.00;100019.84;5093580;28;20031;-72
2022/01/11 02:13:44;;;;;;;9.95;5.43;;;;;;;4.13;100.00;100027.16;5093495;28;20032;-72
2022/01/11 02:16:10;;;;;;;8.35;5.78;;;;;;;4.12;100.00;100017.75;5092459;28;20471;-71
2022/01/11 02:18:35;;;;;;;12.43;5.85;;;;;;;4.06;100.00;100020.81;5092315;28;20034;-74
2022/01/11 02:21:01;;;;;;;8.70;5.15;;;;;;;3.99;100.00;100004.28;5073934;28;20036;-74
2022/01/11 02:23:28;;;;;;;14.10;7.68;;;;;;;3.96;100.00;100009.25;5072809;28;20032;-74
2022/01/11 02:25:53;;;;;;;8.30;4.93;;;;;;;4.01;100.00;100025.69;5073244;28;20028;-72
2022/01/11 02:28:23;;;;;;;13.25;8.52;;;;;;;3.96;100.00;100032.22;5072589;28;20039;-74
2022/01/11 02:30:49;;;;;;;12.68;6.25;;;;;;;4.00;100.00;100046.03;5072220;28;20024;-74
2022/01/11 02:33:32;;;;;;;7.30;4.82;;;;;;;3.96;100.00;100045.00;5072188;28;20028;-74
2022/01/11 02:35:59;;;;;;;18.25;7.88;;;;;;;3.95;100.00;100055.09;5072733;28;20083;-75
2022/01/11 02:38:24;;;;;;;17.25;7.25;;;;;;;3.93;100.00;100056.72;5072069;28;20085;-73
2022/01/11 02:40:50;;;;;;;10.55;5.47;;;;;;;3.86;100.00;100055.47;5071735;28;20480;-75
2022/01/11 02:43:16;;;;;;;10.02;5.45;;;;;;;3.43;100.00;99978.97;5071295;28;20491;-73
2022/01/11 02:45:41;;;;;;;24.70;8.45;;;;;;;3.89;100.00;100073.53;5071493;28;20065;-73
2022/01/11 02:48:07;;;;;;;36.20;10.90;;;;;;;3.84;100.00;100083.47;5071193;28;20089;-74
2022/01/11 02:50:33;;;;;;;23.10;9.93;;;;;;;3.86;100.00;100070.78;5071791;28;20417;-73
2022/01/11 02:52:58;;;;;;;31.15;10.27;;;;;;;3.83;100.00;100065.50;5072259;28;20074;-73
2022/01/11 02:55:24;;;;;;;37.08;11.85;;;;;;;3.81;100.00;100064.53;5071360;28;20025;-74
2022/01/11 02:57:49;;;;;;;24.08;10.55;;;;;;;3.94;100.00;100081.44;5071743;28;20050;-73
2022/01/11 03:00:18;;;;;;;29.08;11.05;;;;;;;3.86;100.00;100081.00;5053449;28;20041;-71
2022/01/11 03:02:44;;;;;;;37.00;11.13;;;;;;;3.79;100.00;100061.91;5072894;28;20036;-74
2022/01/11 03:05:11;;;;;;;31.50;10.60;;;;;;;3.73;100.00;100075.19;5035397;28;20275;-73
2022/01/11 03:07:41;;;;;;;27.17;10.07;;;;;;;3.88;100.00;100093.06;5071644;28;20029;-74
2022/01/11 03:10:28;;;;;;;19.77;8.18;;;;;;;3.63;100.00;100042.25;5070546;28;20494;-74
2022/01/11 03:12:54;;;;;;;38.25;9.77;;;;;;;3.74;100.00;100063.31;5070814;28;20020;-74
2022/01/11 03:15:20;;;;;;;36.55;9.82;;;;;;;3.78;100.00;100088.22;5071354;28;20387;-73
2022/01/11 03:17:46;;;;;;;41.08;12.30;;;;;;;3.78;100.00;100103.53;5071440;28;20576;-73
2022/01/11 03:20:11;;;;;;;24.10;8.68;;;;;;;3.79;100.00;100095.09;5070009;28;20482;-74
2022/01/11 03:22:37;;;;;;;27.25;7.60;;;;;;;3.68;100.00;100091.91;5070980;28;20043;-73
2022/01/11 03:25:06;;;;;;;32.92;10.68;;;;;;;3.69;100.00;100103.88;5071153;28;20052;-73
2022/01/11 03:27:32;;;;;;;27.35;11.10;;;;;;;3.66;100.00;100093.47;5076502;28;20546;-73
2022/01/11 03:29:58;;;;;;;15.70;7.72;;;;;;;3.66;100.00;100093.47;5081242;28;20110;-73
2022/01/11 03:32:24;;;;;;;32.80;10.70;;;;;;;3.71;100.00;100101.41;5070465;28;20068;-73
2022/01/11 03:34:50;;;;;;;23.27;9.35;;;;;;;3.78;100.00;100125.66;5070244;28;20483;-73
2022/01/11 03:37:17;;;;;;;33.53;11.60;;;;;;;3.51;100.00;100093.44;5070697;28;20039;-73
2022/01/11 03:39:44;;;;;;;22.83;9.05;;;;;;;3.68;100.00;100127.66;5070568;28;20036;-73
2022/01/11 03:42:10;;;;;;;25.60;10.40;;;;;;;3.46;100.00;100105.06;5069807;28;20107;-73
2022/01/11 03:44:36;;;;;;;27.42;10.07;;;;;;;3.60;100.00;100144.19;5052389;28;20115;-73
2022/01/11 03:47:02;;;;;;;23.00;9.45;;;;;;;3.51;100.00;100139.41;5070458;28;20119;-73
2022/01/11 03:49:28;;;;;;;34.53;11.30;;;;;;;3.52;100.00;100147.94;5070898;28;20139;-71
2022/01/11 03:51:54;;;;;;;19.33;9.00;;;;;;;3.36;100.00;100129.16;5071412;28;20513;-72
2022/01/11 03:54:29;;;;;;;29.52;11.98;;;;;;;3.36;100.00;100136.81;5069036;28;20471;-73
2022/01/11 03:56:55;;;;;;;26.25;11.77;;;;;;;3.28;100.00;100119.28;5070045;28;20524;-74
2022/01/11 03:59:21;;;;;;;27.42;13.68;;;;;;;3.30;100.00;100141.56;5069786;28;20032;-73
2022/01/11 04:01:47;;;;;;;21.50;10.32;;;;;;;3.16;100.00;100132.19;5070044;28;20036;-73
2022/01/11 04:04:14;;;;;;;34.42;13.85;;;;;;;3.23;100.00;100152.19;5070486;28;20026;-72
2022/01/11 04:06:40;;;;;;;35.80;15.25;;;;;;;3.14;100.00;100128.66;5070227;28;20081;-71
2022/01/11 04:09:07;;;;;;;38.35;15.25;;;;;;;3.04;100.00;100115.34;5069583;28;20024;-73
2022/01/11 04:11:33;;;;;;;43.88;15.75;;;;;;;3.30;100.00;100161.97;5069998;28;20051;-72
2022/01/11 04:13:59;;;;;;;32.97;12.20;;;;;;;3.27;100.00;100156.66;5070267;28;20398;-72
2022/01/11 04:16:25;;;;;;;29.27;13.27;;;;;;;3.24;100.00;100174.34;5069817;28;20049;-72
2022/01/11 04:18:50;;;;;;;31.95;11.52;;;;;;;3.26;100.00;100161.69;5069994;28;20534;-72
2022/01/11 04:21:16;;;;;;;31.10;12.90;;;;;;;3.18;100.00;100146.78;5070867;28;20024;-71
2022/01/11 04:23:41;;;;;;;29.35;12.75;;;;;;;3.29;100.00;100174.63;5069887;28;20021;-71
2022/01/11 04:26:07;;;;;;;33.15;12.88;;;;;;;3.28;100.00;100173.75;5069085;28;20143;-72
2022/01/11 04:28:32;;;;;;;30.27;13.23;;;;;;;3.30;100.00;100176.38;5052056;28;20035;-73
2022/01/11 04:31:00;;;;;;;27.70;11.52;;;;;;;3.04;100.00;100129.75;5069628;28;20058;-74
2022/01/11 04:33:30;;;;;;;22.27;10.40;;;;;;;3.28;100.00;100171.19;5069979;28;20056;-70
2022/01/11 04:35:58;;;;;;;23.55;9.65;;;;;;;3.26;100.00;100177.00;5069728;28;20024;-70
2022/01/11 04:38:26;;;;;;;19.52;8.85;;;;;;;3.24;100.00;100187.13;5077263;28;20081;-71
2022/01/11 04:40:51;;;;;;;24.05;10.35;;;;;;;3.24;100.00;100176.91;5090442;28;20028;-72
2022/01/11 04:43:17;;;;;;;36.22;13.90;;;;;;;3.24;100.00;100174.34;5091020;28;20032;-72
2022/01/11 04:45:43;;;;;;;37.97;13.05;;;;;;;3.22;100.00;100183.56;5089395;28;20026;-73
2022/01/11 04:48:10;;;;;;;30.58;13.05;;;;;;;3.29;100.00;100202.69;5089939;28;20058;-73
2022/01/11 04:50:36;;;;;;;27.52;12.13;;;;;;;3.29;100.00;100207.78;5089853;28;20024;-73
2022/01/11 04:53:02;;;;;;;26.15;10.90;;;;;;;3.20;100.00;100213.19;5089578;28;20082;-73
2022/01/11 04:55:29;;;;;;;23.20;10.48;;;;;;;3.23;100.00;100213.41;5089655;28;20474;-73
2022/01/11 04:57:55;;;;;;;16.00;7.43;;;;;;;3.19;100.00;100212.34;5090210;28;20024;-73
2022/01/11 05:00:23;;;;;;;21.90;8.98;;;;;;;3.20;100.00;100211.56;5089665;28;20481;-73
2022/01/11 05:02:49;;;;;;;25.90;9.85;;;;;;;3.04;100.00;100212.25;5089822;28;20020;-72
2022/01/11 05:05:15;;;;;;;25.15;8.45;;;;;;;3.15;100.00;100224.78;5089972;28;20031;-72
2022/01/11 05:07:46;;;;;;;18.38;8.05;;;;;;;3.12;100.00;100222.94;5089569;28;20533;-72
2022/01/11 05:10:12;;;;;;;23.58;8.02;;;;;;;3.04;100.00;100237.75;5089593;28;20632;-72
2022/01/11 05:12:38;;;;;;;32.30;10.38;;;;;;;3.06;100.00;100237.84;5089099;28;20474;-73
2022/01/11 05:15:07;;;;;;;23.38;8.43;;;;;;;3.00;100.00;100235.78;5089292;28;20036;-72
2022/01/11 05:17:32;;;;;;;21.65;8.57;;;;;;;2.72;100.00;100194.91;5071277;28;20047;-72
2022/01/11 05:19:58;;;;;;;23.10;8.85;;;;;;;2.97;100.00;100240.69;5090275;28;20020;-71
2022/01/11 05:22:23;;;;;;;27.02;9.95;;;;;;;2.93;100.00;100254.06;5077738;28;20029;-72
2022/01/11 05:24:49;;;;;;;28.00;11.98;;;;;;;2.88;100.00;100235.03;5088273;28;20032;-72
2022/01/11 05:27:14;;;;;;;37.05;11.88;;;;;;;2.90;100.00;100253.84;5090588;28;20123;-71
2022/01/11 05:29:40;;;;;;;37.75;13.95;;;;;;;2.94;100.00;100257.47;5090420;28;20056;-71
2022/01/11 05:32:06;;;;;;;33.30;12.75;;;;;;;3.02;100.00;100259.72;5090870;28;20078;-71
2022/01/11 05:34:31;;;;;;;31.02;12.13;;;;;;;2.98;100.00;100283.28;5090546;28;20032;-71
2022/01/11 05:36:57;;;;;;;36.60;14.38;;;;;;;3.01;100.00;100280.91;5090359;28;20593;-70
2022/01/11 05:39:23;;;;;;;25.92;10.55;;;;;;;2.80;100.00;100233.66;5090607;28;20031;-73
2022/01/11 05:41:48;;;;;;;19.35;8.95;;;;;;;3.01;100.00;100282.59;5090550;28;20093;-73
2022/01/11 05:44:14;;;;;;;22.63;9.27;;;;;;;2.89;100.00;100267.38;5056748;28;20071;-74
2022/01/11 05:46:39;;;;;;;25.92;8.68;;;;;;;3.05;100.00;100299.84;5094234;28;20158;-78
2022/01/11 05:49:05;;;;;;;25.42;8.32;;;;;;;3.04;100.00;100306.63;5089814;28;20031;-74
2022/01/11 05:51:30;;;;;;;28.40;9.98;;;;;;;2.90;100.00;100281.88;5083401;28;20054;-78
2022/01/11 05:53:56;;;;;;;30.90;11.20;;;;;;;2.76;100.00;100273.34;5074718;28;20430;-75
2022/01/11 05:56:22;;;;;;;33.67;10.80;;;;;;;2.98;100.00;100316.44;5073685;28;20402;-73
2022/01/11 05:58:48;;;;;;;26.55;9.57;;;;;;;3.01;100.00;100318.28;5073899;28;20020;-72
2022/01/11 06:01:14;;;;;;;35.13;11.95;;;;;;;2.84;100.00;100291.69;5074513;28;20020;-72
2022/01/11 06:03:40;;;;;;;40.42;11.63;;;;;;;2.87;100.00;100299.56;5084377;28;20383;-72
2022/01/11 06:06:06;;;;;;;34.13;11.25;;;;;;;3.01;100.00;100323.38;5084077;28;20028;-75
2022/01/11 06:08:31;;;;;;;24.65;9.38;;;;;;;2.84;100.00;100315.53;5076004;28;20051;-75
2022/01/11 06:10:57;;;;;;;25.73;10.52;;;;;;;2.98;100.00;100333.38;5055061;28;20071;-75
2022/01/11 06:13:23;;;;;;;30.52;10.02;;;;;;;2.96;100.00;100328.19;5076946;28;20028;-74
2022/01/11 06:15:49;;;;;;;19.30;8.30;;;;;;;2.91;100.00;100321.91;5060492;28;20032;-74
2022/01/11 06:18:14;;;;;;;19.98;8.52;;;;;;;2.77;100.00;100307.34;5072167;28;20025;-73
2022/01/11 06:20:40;;;;;;;17.88;8.60;;;;;;;2.95;100.00;100328.97;5090893;28;20036;-74
2022/01/11 06:23:05;;;;;;;9.90;6.28;;;;;;;2.90;100.00;100343.97;5080604;28;20468;-75
2022/01/11 06:25:31;;;;;;;13.32;8.68;;;;;;;2.89;100.00;100342.22;5091817;28;20032;-73
2022/01/11 06:27:56;;;;;;;48.15;29.10;;;;;;;2.77;100.00;100343.03;5077317;28;20461;-75
2022/01/11 06:30:22;;;;;;;67.32;30.25;;;;;;;2.85;100.00;100357.19;5076363;28;20036;-75
2022/01/11 06:32:47;;;;;;;37.08;17.65;;;;;;;2.85;100.00;100369.94;5074484;28;20032;-74
2022/01/11 06:35:15;;;;;;;41.90;32.08;;;;;;;2.83;100.00;100368.94;5092537;28;20028;-74
2022/01/11 06:37:41;;;;;;;48.83;25.40;;;;;;;2.89;100.00;100392.31;5092874;28;20035;-73
2022/01/11 06:40:08;;;;;;;34.53;13.63;;;;;;;2.85;100.00;100390.34;5092570;28;20024;-73
2022/01/11 06:42:34;;;;;;;43.45;24.98;;;;;;;2.94;100.00;100405.38;5085868;28;20020;-70
2022/01/11 06:45:00;;;;;;;40.67;22.75;;;;;;;2.99;100.00;100412.56;5078388;28;20104;-71
2022/01/11 06:47:25;;;;;;;30.65;16.48;;;;;;;2.88;100.00;100404.19;5056057;28;20021;-71
2022/01/11 06:49:51;;;;;;;37.22;12.93;;;;;;;2.88;100.00;100419.47;5071752;28;20055;-71
2022/01/11 06:52:17;;;;;;;32.80;13.18;;;;;;;2.98;100.00;100433.75;5071894;28;20020;-71
2022/01/11 06:54:42;;;;;;;93.93;41.80;;;;;;;2.98;100.00;100418.44;5072172;28;20031;-70
2022/01/11 06:57:09;;;;;;;32.10;16.17;;;;;;;3.05;100.00;100445.22;5071333;28;20103;-70
2022/01/11 06:59:37;;;;;;;25.33;11.23;;;;;;;2.33;100.00;100329.09;5071552;28;20028;-70
2022/01/11 07:02:06;;;;;;;27.20;11.40;;;;;;;2.95;100.00;100443.72;5071151;28;20394;-70
2022/01/11 07:04:33;;;;;;;25.17;9.50;;;;;;;2.97;100.00;100448.94;5071329;28;20475;-69
2022/01/11 07:06:58;;;;;;;20.58;9.82;;;;;;;3.08;100.00;100460.75;5077077;28;20033;-69
2022/01/11 07:09:24;;;;;;;23.00;7.57;;;;;;;2.96;100.00;100467.56;5077881;28;20071;-69
2022/01/11 07:11:50;;;;;;;29.88;8.73;;;;;;;2.95;100.00;100473.44;5072804;28;20024;-69
2022/01/11 07:14:15;;;;;;;36.28;10.52;;;;;;;2.97;100.00;100477.88;5071181;28;20107;-70
2022/01/11 07:16:43;;;;;;;23.13;7.97;;;;;;;2.99;100.00;100477.97;5070944;28;20044;-70
2022/01/11 07:19:09;;;;;;;20.58;8.70;;;;;;;2.83;100.00;100451.44;5073668;28;20036;-71
2022/01/11 07:21:35;;;;;;;34.38;8.30;;;;;;;2.99;100.00;100467.75;5079886;28;20028;-71
2022/01/11 07:24:02;;;;;;;23.98;8.88;;;;;;;3.00;100.00;100469.53;5085358;28;20033;-72
2022/01/11 07:26:27;;;;;;;13.85;7.18;;;;;;;3.07;100.00;100470.03;5091217;28;20024;-71
2022/01/11 07:28:53;;;;;;;16.02;6.85;;;;;;;3.00;100.00;100465.31;5091315;28;20047;-71
2022/01/11 07:31:18;;;;;;;9.73;5.30;;;;;;;2.65;100.00;100406.84;5091142;28;20409;-70
2022/01/11 07:33:44;;;;;;;10.57;5.10;;;;;;;2.80;100.00;100470.75;5091525;28;20470;-69
2022/01/11 07:36:10;;;;;;;13.60;6.40;;;;;;;2.79;100.00;100468.97;5091362;28;20052;-69
2022/01/11 07:38:36;;;;;;;13.30;8.63;;;;;;;2.74;100.00;100469.56;5091226;28;20028;-69
2022/01/11 07:41:01;;;;;;;14.98;6.57;;;;;;;2.83;100.00;100470.94;5066420;28;20079;-70
2022/01/11 07:43:27;;;;;;;23.90;8.05;;;;;;;2.85;100.00;100479.59;5089231;28;20032;-70
2022/01/11 07:45:52;;;;;;;8.10;4.15;;;;;;;2.80;100.00;100470.75;5088879;28;20462;-70
2022/01/11 07:48:18;;;;;;;7.28;4.38;;;;;;;2.72;100.00;100480.41;5065169;28;20082;-71
2022/01/11 07:50:43;;;;;;;6.90;3.97;;;;;;;2.48;100.00;100436.28;5070562;28;20024;-69
2022/01/11 07:53:08;;;;;;;8.23;4.68;;;;;;;2.68;100.00;100481.88;5070622;28;20021;-70
2022/01/11 07:55:34;;;;;;;6.07;3.33;;;;;;;2.56;100.00;100465.72;5070637;28;20082;-71
2022/01/11 07:57:59;;;;;;;5.85;3.45;;;;;;;2.62;100.00;100478.91;5070330;28;20085;-70
2022/01/11 08:00:25;;;;;;;8.18;3.65;;;;;;;2.55;100.00;100490.31;5070229;28;20070;-71
2022/01/11 08:02:50;;;;;;;6.90;4.10;;;;;;;2.63;100.00;100500.16;5070227;28;20028;-70
2022/01/11 08:05:18;;;;;;;12.38;4.07;;;;;;;2.41;100.00;100461.34;5070309;28;20028;-71
2022/01/11 08:07:43;;;;;;;9.57;4.75;;;;;;;2.65;100.00;100504.59;5069996;28;20025;-71
2022/01/11 08:10:11;;;;;;;24.25;6.93;;;;;;;2.65;100.00;100512.22;5070525;28;20035;-71
2022/01/11 08:12:38;;;;;;;29.38;8.40;;;;;;;2.72;100.00;100516.13;5070350;28;20021;-71
2022/01/11 08:15:05;;;;;;;27.67;9.00;;;;;;;2.57;100.00;100501.50;5070235;28;20034;-71
2022/01/11 08:17:31;;;;;;;61.10;25.40;;;;;;;2.78;100.00;100531.84;5069998;28;20098;-72
2022/01/11 08:19:57;;;;;;;45.63;16.45;;;;;;;2.82;100.00;100541.47;5070250;28;20033;-72
2022/01/11 08:22:23;;;;;;;35.83;11.75;;;;;;;2.75;100.00;100545.25;5069842;28;20508;-72
2022/01/11 08:24:48;;;;;;;43.97;20.67;;;;;;;2.76;100.00;100551.22;5071951;28;20028;-74
2022/01/11 08:27:14;;;;;;;47.25;16.77;;;;;;;2.82;100.00;100550.78;5088406;28;20063;-73
2022/01/11 08:29:41;;;;;;;48.17;16.40;;;;;;;2.71;100.00;100543.25;5089896;28;20032;-74
2022/01/11 08:32:08;;;;;;;40.47;19.92;;;;;;;2.71;100.00;100565.31;5090676;28;20031;-74
2022/01/11 08:34:33;;;;;;;28.80;12.20;;;;;;;2.72;100.00;100567.09;5089958;28;20127;-73
2022/01/11 08:36:59;;;;;;;25.83;9.93;;;;;;;2.34;100.00;100516.84;5090757;28;20107;-72
2022/01/11 08:39:25;;;;;;;27.48;13.40;;;;;;;2.64;100.00;100565.66;5090317;28;20020;-72
2022/01/11 08:41:52;;;;;;;25.63;11.75;;;;;;;2.48;100.00;100528.91;5089998;28;20039;-74
2022/01/11 08:44:22;;;;;;;39.88;12.07;;;;;;;2.44;100.00;100524.38;5089726;28;20568;-73
2022/01/11 08:46:48;;;;;;;32.22;17.30;;;;;;;2.54;100.00;100531.91;5089902;28;20073;-73
2022/01/11 08:49:14;;;;;;;50.22;23.33;;;;;;;2.64;100.00;100556.38;5089872;28;20024;-73
2022/01/11 08:51:40;;;;;;;30.08;15.35;;;;;;;2.75;100.00;100572.41;5078132;28;20061;-75
2022/01/11 08:54:06;;;;;;;15.80;8.30;;;;;;;2.78;100.00;100579.38;5069775;28;20027;-74
2022/01/11 08:56:32;;;;;;;28.00;11.65;;;;;;;2.56;100.00;100560.03;5076099;28;20054;-75
2022/01/11 08:58:58;;;;;;;34.95;11.65;;;;;;;2.68;100.00;100577.84;5089580;28;20024;-73
2022/01/11 09:01:26;;;;;;;29.67;11.15;;;;;;;2.45;100.00;100554.16;5088393;28;20024;-72
2022/01/11 09:03:52;;;;;;;37.05;11.57;;;;;;;2.70;100.00;100583.94;5090058;28;20059;-73
2022/01/11 09:06:19;;;;;;;21.52;8.82;;;;;;;2.24;100.00;100505.13;5090000;28;20158;-73
2022/01/11 09:08:44;;;;;;;20.70;8.57;;;;;;;2.65;100.00;100582.72;5089801;28;20486;-74
2022/01/11 09:11:10;;;;;;;23.45;9.20;;;;;;;2.57;100.00;100592.41;5089406;28;20103;-73
2022/01/11 09:13:37;;;;;;;20.70;10.15;;;;;;;2.60;100.00;100597.69;5087142;28;20058;-74
2022/01/11 09:16:04;;;;;;;22.27;6.93;;;;;;;2.48;100.00;100587.53;5082642;28;20097;-73
2022/01/11 09:18:30;;;;;;;19.60;8.43;;;;;;;2.41;100.00;100581.09;5092532;28;20466;-73
2022/01/11 09:21:00;;;;;;;12.63;5.50;;;;;;;2.42;100.00;100594.75;5091507;28;20035;-73
2022/01/11 09:23:29;;;;;;;18.25;6.10;;;;;;;2.08;100.00;100544.78;5088011;28;20064;-73
2022/01/11 09:25:54;;;;;;;23.83;9.90;;;;;;;2.19;100.00;100586.31;5093595;28;20024;-73
2022/01/11 09:28:21;;;;;;;15.80;9.07;;;;;;;2.13;100.00;100584.97;5093778;28;20020;-73
2022/01/11 09:30:47;;;;;;;24.25;7.53;;;;;;;2.23;100.00;100588.31;5093710;28;20024;-73
2022/01/11 09:33:13;;;;;;;13.13;6.18;;;;;;;2.00;100.00;100547.56;5093630;28;20022;-73
2022/01/11 09:35:38;;;;;;;19.23;7.45;;;;;;;2.14;100.00;100561.28;5093692;28;20106;-73
2022/01/11 09:38:04;;;;;;;43.55;11.75;;;;;;;2.03;100.00;100553.78;5092115;28;20556;-73
2022/01/11 09:40:29;;;;;;;25.48;11.05;;;;;;;2.09;100.00;100576.22;5083457;28;20402;-73
2022/01/11 09:42:55;;;;;;;27.85;10.98;;;;;;;2.21;100.00;100582.22;5074082;28;20020;-73
2022/01/11 09:45:21;;;;;;;17.15;7.97;;;;;;;2.17;100.00;100582.78;5057331;28;20059;-72
2022/01/11 09:47:47;;;;;;;32.55;9.77;;;;;;;2.01;100.00;100574.81;5089274;28;20032;-73
2022/01/11 09:50:15;;;;;;;32.92;11.75;;;;;;;1.92;100.00;100547.88;5083020;28;20525;-73
2022/01/11 09:52:41;;;;;;;26.20;10.13;;;;;;;2.04;100.00;100580.97;5083002;28;20066;-73
2022/01/11 09:55:09;;;;;;;43.28;12.10;;;;;;;2.10;100.00;100573.78;5084272;28;20028;-73
2022/01/11 09:57:35;;;;;;;49.30;15.30;;;;;;;2.17;100.00;100582.78;5083240;28;20032;-73
2022/01/11 10:00:01;;;;;;;42.60;10.55;;;;;;;2.10;100.00;100586.53;5082758;28;20111;-72
2022/01/11 10:02:26;;;;;;;29.48;14.07;;;;;;;2.02;100.00;100577.47;5081873;28;20025;-75
2022/01/11 10:05:01;;;;;;;32.72;10.98;;;;;;;2.00;100.00;100584.09;5065934;28;20406;-72
2022/01/11 10:07:32;;;;;;;31.40;11.18;;;;;;;1.67;100.00;100529.03;5083962;28;20486;-74
2022/01/11 10:09:59;;;;;;;28.70;12.20;;;;;;;1.99;100.00;100582.31;5083459;28;20020;-74
2022/01/11 10:12:26;;;;;;;40.83;14.68;;;;;;;1.98;100.00;100575.47;5082207;28;20125;-73
2022/01/11 10:14:54;;;;;;;22.27;10.15;;;;;;;1.97;100.00;100581.34;5083486;28;20020;-72
2022/01/11 10:17:20;;;;;;;37.10;14.18;;;;;;;2.00;100.00;100578.13;5083569;28;20052;-73
2022/01/11 10:19:58;;;;;;;35.45;12.05;;;;;;;2.00;100.00;100581.53;5083356;28;20025;-73
2022/01/11 10:22:24;;;;;;;15.48;10.13;;;;;;;1.92;100.00;100570.81;5091044;28;20032;-74
2022/01/11 10:24:52;;;;;;;28.63;13.52;;;;;;;1.85;100.00;100549.88;5093216;28;20410;-74
2022/01/11 10:27:29;;;;;;;32.17;13.90;;;;;;;1.89;100.00;100578.19;5093127;28;20515;-74
2022/01/11 10:30:17;;;;;;;18.70;10.57;;;;;;;1.70;100.00;100573.44;5089257;28;20032;-73
2022/01/11 10:32:48;;;;;;;15.73;10.00;;;;;;;1.35;100.00;100537.75;5083656;28;20534;-74
2022/01/11 10:35:15;;;;;;;14.55;8.80;;;;;;;1.49;100.00;100566.75;5083036;28;20020;-75
2022/01/11 10:37:43;;;;;;;17.75;10.93;;;;;;;1.48;100.00;100570.06;5083740;28;20024;-73
2022/01/11 10:40:17;;;;;;;27.30;13.73;;;;;;;1.49;100.00;100562.53;5083698;28;20098;-75
2022/01/11 10:42:50;;;;;;;59.65;21.05;;;;;;;1.29;100.00;100530.53;5083506;28;20036;-75
2022/01/11 10:45:25;;;;;;;44.72;16.45;;;;;;;1.49;100.00;100561.66;5082813;28;20034;-74
2022/01/11 10:47:54;;;;;;;33.17;14.90;;;;;;;1.50;100.00;100571.94;5087056;28;20474;-75
2022/01/11 10:50:28;;;;;;;34.22;17.17;;;;;;;1.57;100.00;100578.38;5083697;28;20056;-74
2022/01/11 10:52:55;;;;;;;28.85;13.93;;;;;;;1.47;100.00;100563.19;5083466;28;20028;-75
2022/01/11 10:55:23;;;;;;;42.83;16.52;;;;;;;1.54;100.00;100553.59;5082459;28;20120;-75
2022/01/11 10:57:54;;;;;;;44.58;17.33;;;;;;;1.62;100.00;100574.53;5081939;28;20036;-74
2022/01/11 11:00:22;;;;;;;47.10;19.80;;;;;;;1.61;100.00;100568.53;5083125;28;20021;-74
2022/01/11 11:02:52;;;;;;;45.70;18.15;;;;;;;1.57;100.00;100560.56;5082991;28;20032;-74
2022/01/11 11:05:18;;;;;;;39.35;16.17;;;;;;;1.69;100.00;100594.56;5083303;28;20024;-74
2022/01/11 11:07:54;;;;;;;39.85;16.73;;;;;;;1.73;100.00;100582.94;5082185;28;20036;-74
2022/01/11 11:10:29;;;;;;;36.88;14.55;;;;;;;1.77;100.00;100590.94;5083173;28;20055;-74
2022/01/11 11:12:56;;;;;;;18.58;11.02;;;;;;;1.78;100.00;100597.81;5082910;28;20020;-74
2022/01/11 11:15:42;;;;;;;35.08;17.77;;;;;;;1.68;100.00;100595.31;5081506;28;20529;-74
2022/01/11 11:18:21;;;;;;;20.40;11.73;;;;;;;1.55;100.00;100590.13;5085795;28;20040;-73